Kota Waris — S6RJ — position and weather

sailwx.info

Track history (hours):
 
Tides and Currents Weather Stations Pressure Air Temp Water Temp Dewpoint Dewpoint Depression Visibility Wind Speed Wind Dir Waves Ship Positions

Kota Waris

Last reported at 2015-May-28 05:33 UTC. Time now 2015-May-29 22:30 UTC.
Position N 20°10' E 110°16'.

Length 185 m; draft 6 m.

Type: Ship (hazmat cat A). MMSI: 564482000.

Date/timePositionNaut miles runAvg speedWind from/ knotsBaromVisibWave heightAir tempDewpointWater temp
2015-May-28 05:33N 20°10' E 110°16'13912.1
2015-May-27 18:08N 21°36' E 108°20'0 0.0
2015-May-27 11:04N 21°36' E 108°20'  
2015-May-21 04:33N 01°15' E 104°05'1412.2
2015-May-21 03:27N 01°12' E 103°52'7 7.4
2015-May-21 02:32N 01°16' E 103°46'2 1.7
2015-May-21 01:32N 01°17' E 103°46'0 0.0
2015-May-20 22:23N 01°17' E 103°46'0 0.0
2015-May-20 19:20N 01°17' E 103°46'0 0.0
2015-May-20 18:23N 01°17' E 103°46'0 0.0
2015-May-20 14:23N 01°17' E 103°46'0 0.1
2015-May-20 10:33N 01°17' E 103°46'2 2.2
2015-May-20 09:33N 01°15' E 103°46'7 6.7
2015-May-20 08:33N 01°15' E 103°53'0 0.1
2015-May-20 06:32N 01°15' E 103°53'0 0.1
2015-May-20 05:26N 01°15' E 103°53'0 0.1
2015-May-20 03:29N 01°15' E 103°53'0 0.0
2015-May-20 02:33N 01°15' E 103°53'0 0.0
2015-May-20 01:33N 01°15' E 103°53'2 1.6
2015-May-20 00:33N 01°14' E 103°54'6 6.0
2015-May-19 23:33N 01°15' E 104°00'1211.6
2015-May-19 22:29N 01°17' E 104°12'  
Track history (hours):
 
Tides and Currents Weather Stations Pressure Air Temp Water Temp Dewpoint Dewpoint Depression Visibility Wind Speed Wind Dir Waves Ship Positions

Kota Waris

Last reported at 2015-May-28 05:33 UTC. Time now 2015-May-29 22:30 UTC.
Position N 20°10' E 110°16'.

Length 185 m; draft 6 m.

Type: Ship (hazmat cat A). MMSI: 564482000.

Date/timePositionNaut miles runAvg speedWind from/ knotsBaromVisibWave heightAir tempDewpointWater temp
2015-May-28 05:33N 20°10' E 110°16'13912.1
2015-May-27 18:08N 21°36' E 108°20'0 0.0
2015-May-27 11:04N 21°36' E 108°20'  
2015-May-21 04:33N 01°15' E 104°05'1412.2
2015-May-21 03:27N 01°12' E 103°52'7 7.4
2015-May-21 02:32N 01°16' E 103°46'2 1.7
2015-May-21 01:32N 01°17' E 103°46'0 0.0
2015-May-20 22:23N 01°17' E 103°46'0 0.0
2015-May-20 19:20N 01°17' E 103°46'0 0.0
2015-May-20 18:23N 01°17' E 103°46'0 0.0
2015-May-20 14:23N 01°17' E 103°46'0 0.1
2015-May-20 10:33N 01°17' E 103°46'2 2.2
2015-May-20 09:33N 01°15' E 103°46'7 6.7
2015-May-20 08:33N 01°15' E 103°53'0 0.1
2015-May-20 06:32N 01°15' E 103°53'0 0.1
2015-May-20 05:26N 01°15' E 103°53'0 0.1
2015-May-20 03:29N 01°15' E 103°53'0 0.0
2015-May-20 02:33N 01°15' E 103°53'0 0.0
2015-May-20 01:33N 01°15' E 103°53'2 1.6
2015-May-20 00:33N 01°14' E 103°54'6 6.0
2015-May-19 23:33N 01°15' E 104°00'1211.6
2015-May-19 22:29N 01°17' E 104°12'  

Dump ship's entire track history